sensor_id;sensor_type;location;lat;lon;timestamp;P1;durP1;ratioP1;P2;durP2;ratioP2
8964;SDS011;4517;49.020;12.066;2023-05-10T00:01:23;14.73;;;13.67;;
8964;SDS011;4517;49.020;12.066;2023-05-10T00:03:49;15.63;;;14.57;;
8964;SDS011;4517;49.020;12.066;2023-05-10T00:06:15;15.60;;;14.40;;
8964;SDS011;4517;49.020;12.066;2023-05-10T00:08:41;15.37;;;14.47;;
8964;SDS011;4517;49.020;12.066;2023-05-10T00:11:07;16.27;;;14.70;;
8964;SDS011;4517;49.020;12.066;2023-05-10T00:13:32;15.37;;;14.27;;
8964;SDS011;4517;49.020;12.066;2023-05-10T00:15:58;14.80;;;13.90;;
8964;SDS011;4517;49.020;12.066;2023-05-10T00:18:23;15.50;;;14.53;;
8964;SDS011;4517;49.020;12.066;2023-05-10T00:20:49;15.07;;;14.03;;
8964;SDS011;4517;49.020;12.066;2023-05-10T00:23:15;15.60;;;14.23;;
8964;SDS011;4517;49.020;12.066;2023-05-10T00:25:40;16.10;;;14.90;;
8964;SDS011;4517;49.020;12.066;2023-05-10T00:28:06;15.50;;;14.40;;
8964;SDS011;4517;49.020;12.066;2023-05-10T00:30:31;14.97;;;14.10;;
8964;SDS011;4517;49.020;12.066;2023-05-10T00:32:57;14.77;;;13.60;;
8964;SDS011;4517;49.020;12.066;2023-05-10T00:35:22;15.30;;;14.10;;
8964;SDS011;4517;49.020;12.066;2023-05-10T00:37:48;16.20;;;14.80;;
8964;SDS011;4517;49.020;12.066;2023-05-10T00:40:14;15.83;;;14.73;;
8964;SDS011;4517;49.020;12.066;2023-05-10T00:42:40;15.40;;;14.40;;
8964;SDS011;4517;49.020;12.066;2023-05-10T00:45:06;15.60;;;14.60;;
8964;SDS011;4517;49.020;12.066;2023-05-10T00:47:32;15.87;;;14.57;;
8964;SDS011;4517;49.020;12.066;2023-05-10T00:49:59;16.00;;;14.70;;
8964;SDS011;4517;49.020;12.066;2023-05-10T00:52:26;14.53;;;13.60;;
8964;SDS011;4517;49.020;12.066;2023-05-10T00:54:52;15.83;;;14.63;;
8964;SDS011;4517;49.020;12.066;2023-05-10T00:57:20;14.83;;;13.60;;
8964;SDS011;4517;49.020;12.066;2023-05-10T00:59:46;15.90;;;14.30;;
8964;SDS011;4517;49.020;12.066;2023-05-10T01:02:12;16.17;;;14.53;;
8964;SDS011;4517;49.020;12.066;2023-05-10T01:04:38;15.30;;;14.20;;
8964;SDS011;4517;49.020;12.066;2023-05-10T01:07:04;14.80;;;13.80;;
8964;SDS011;4517;49.020;12.066;2023-05-10T01:09:30;14.97;;;13.77;;
8964;SDS011;4517;49.020;12.066;2023-05-10T01:11:56;15.87;;;14.67;;
8964;SDS011;4517;49.020;12.066;2023-05-10T01:14:21;14.90;;;13.60;;
8964;SDS011;4517;49.020;12.066;2023-05-10T01:16:48;14.57;;;13.67;;
8964;SDS011;4517;49.020;12.066;2023-05-10T01:19:19;14.30;;;13.30;;
8964;SDS011;4517;49.020;12.066;2023-05-10T01:36:30;15.43;;;14.43;;
8964;SDS011;4517;49.020;12.066;2023-05-10T01:41:36;16.23;;;15.07;;
8964;SDS011;4517;49.020;12.066;2023-05-10T01:47:05;15.27;;;14.20;;
8964;SDS011;4517;49.020;12.066;2023-05-10T01:49:36;16.10;;;14.90;;
8964;SDS011;4517;49.020;12.066;2023-05-10T01:52:25;15.30;;;13.90;;
8964;SDS011;4517;49.020;12.066;2023-05-10T01:54:56;15.50;;;14.30;;
8964;SDS011;4517;49.020;12.066;2023-05-10T01:57:27;14.77;;;13.77;;
8964;SDS011;4517;49.020;12.066;2023-05-10T02:00:03;15.20;;;13.90;;
8964;SDS011;4517;49.020;12.066;2023-05-10T02:02:33;15.30;;;14.20;;
8964;SDS011;4517;49.020;12.066;2023-05-10T02:05:03;15.57;;;14.00;;
8964;SDS011;4517;49.020;12.066;2023-05-10T02:07:31;14.90;;;14.00;;
8964;SDS011;4517;49.020;12.066;2023-05-10T02:09:59;15.87;;;14.67;;
8964;SDS011;4517;49.020;12.066;2023-05-10T02:12:26;16.87;;;14.80;;
8964;SDS011;4517;49.020;12.066;2023-05-10T02:14:53;15.97;;;14.60;;
8964;SDS011;4517;49.020;12.066;2023-05-10T02:17:20;15.97;;;14.67;;
8964;SDS011;4517;49.020;12.066;2023-05-10T02:19:46;15.40;;;14.20;;
8964;SDS011;4517;49.020;12.066;2023-05-10T02:22:13;15.90;;;14.33;;
8964;SDS011;4517;49.020;12.066;2023-05-10T02:24:40;15.87;;;14.63;;
8964;SDS011;4517;49.020;12.066;2023-05-10T02:27:06;15.67;;;14.63;;
8964;SDS011;4517;49.020;12.066;2023-05-10T02:29:33;15.60;;;14.50;;
8964;SDS011;4517;49.020;12.066;2023-05-10T02:32:00;16.33;;;15.17;;
8964;SDS011;4517;49.020;12.066;2023-05-10T02:34:27;15.20;;;14.10;;
8964;SDS011;4517;49.020;12.066;2023-05-10T02:36:53;15.70;;;14.63;;
8964;SDS011;4517;49.020;12.066;2023-05-10T02:39:21;15.70;;;14.40;;
8964;SDS011;4517;49.020;12.066;2023-05-10T02:41:48;16.50;;;15.30;;
8964;SDS011;4517;49.020;12.066;2023-05-10T02:44:15;16.60;;;15.30;;
8964;SDS011;4517;49.020;12.066;2023-05-10T02:46:44;16.10;;;14.90;;
8964;SDS011;4517;49.020;12.066;2023-05-10T02:49:10;16.20;;;14.80;;
8964;SDS011;4517;49.020;12.066;2023-05-10T02:51:37;16.40;;;15.00;;
8964;SDS011;4517;49.020;12.066;2023-05-10T02:54:12;16.50;;;15.20;;
8964;SDS011;4517;49.020;12.066;2023-05-10T02:56:47;16.33;;;15.23;;
8964;SDS011;4517;49.020;12.066;2023-05-10T02:59:20;17.30;;;15.60;;
8964;SDS011;4517;49.020;12.066;2023-05-10T03:01:45;16.70;;;15.50;;
8964;SDS011;4517;49.020;12.066;2023-05-10T03:04:11;16.87;;;15.57;;
8964;SDS011;4517;49.020;12.066;2023-05-10T03:06:36;16.60;;;15.20;;
8964;SDS011;4517;49.020;12.066;2023-05-10T03:09:02;17.27;;;15.60;;
8964;SDS011;4517;49.020;12.066;2023-05-10T03:11:49;17.63;;;15.97;;
8964;SDS011;4517;49.020;12.066;2023-05-10T03:20:09;17.70;;;16.33;;
8964;SDS011;4517;49.020;12.066;2023-05-10T03:22:39;17.80;;;16.20;;
8964;SDS011;4517;49.020;12.066;2023-05-10T03:25:10;17.80;;;16.40;;
8964;SDS011;4517;49.020;12.066;2023-05-10T03:27:39;17.73;;;16.17;;
8964;SDS011;4517;49.020;12.066;2023-05-10T03:30:07;18.47;;;16.60;;
8964;SDS011;4517;49.020;12.066;2023-05-10T03:32:35;19.30;;;17.80;;
8964;SDS011;4517;49.020;12.066;2023-05-10T03:35:01;19.63;;;17.83;;
8964;SDS011;4517;49.020;12.066;2023-05-10T03:37:32;20.40;;;18.63;;
8964;SDS011;4517;49.020;12.066;2023-05-10T03:39:57;21.53;;;19.63;;
8964;SDS011;4517;49.020;12.066;2023-05-10T03:42:23;22.23;;;20.20;;
8964;SDS011;4517;49.020;12.066;2023-05-10T03:44:48;21.63;;;19.73;;
8964;SDS011;4517;49.020;12.066;2023-05-10T03:47:14;21.47;;;19.57;;
8964;SDS011;4517;49.020;12.066;2023-05-10T03:49:40;22.37;;;20.40;;
8964;SDS011;4517;49.020;12.066;2023-05-10T03:52:05;22.23;;;20.23;;
8964;SDS011;4517;49.020;12.066;2023-05-10T03:54:31;22.30;;;20.23;;
8964;SDS011;4517;49.020;12.066;2023-05-10T03:56:57;23.00;;;21.00;;
8964;SDS011;4517;49.020;12.066;2023-05-10T03:59:22;23.47;;;21.60;;
8964;SDS011;4517;49.020;12.066;2023-05-10T04:01:48;22.53;;;20.73;;
8964;SDS011;4517;49.020;12.066;2023-05-10T04:04:13;22.93;;;20.93;;
8964;SDS011;4517;49.020;12.066;2023-05-10T04:06:39;24.40;;;22.40;;
8964;SDS011;4517;49.020;12.066;2023-05-10T04:09:04;25.70;;;23.60;;
8964;SDS011;4517;49.020;12.066;2023-05-10T04:11:30;25.30;;;23.10;;
8964;SDS011;4517;49.020;12.066;2023-05-10T04:13:55;25.57;;;23.33;;
8964;SDS011;4517;49.020;12.066;2023-05-10T04:16:21;25.70;;;23.50;;
8964;SDS011;4517;49.020;12.066;2023-05-10T04:18:47;24.73;;;22.67;;
8964;SDS011;4517;49.020;12.066;2023-05-10T04:21:13;25.23;;;23.00;;
8964;SDS011;4517;49.020;12.066;2023-05-10T04:23:39;25.10;;;23.00;;
8964;SDS011;4517;49.020;12.066;2023-05-10T04:26:05;25.40;;;23.10;;
8964;SDS011;4517;49.020;12.066;2023-05-10T04:28:31;26.80;;;23.73;;
8964;SDS011;4517;49.020;12.066;2023-05-10T04:31:03;24.70;;;22.50;;
8964;SDS011;4517;49.020;12.066;2023-05-10T04:33:29;24.97;;;22.83;;
8964;SDS011;4517;49.020;12.066;2023-05-10T04:35:55;24.87;;;22.50;;
8964;SDS011;4517;49.020;12.066;2023-05-10T04:38:21;30.53;;;23.83;;
8964;SDS011;4517;49.020;12.066;2023-05-10T04:40:46;25.97;;;23.67;;
8964;SDS011;4517;49.020;12.066;2023-05-10T04:43:12;23.60;;;21.60;;
8964;SDS011;4517;49.020;12.066;2023-05-10T04:45:38;24.70;;;22.60;;
8964;SDS011;4517;49.020;12.066;2023-05-10T04:48:03;25.50;;;23.13;;
8964;SDS011;4517;49.020;12.066;2023-05-10T04:50:29;25.80;;;23.30;;
8964;SDS011;4517;49.020;12.066;2023-05-10T04:52:55;28.43;;;25.73;;
8964;SDS011;4517;49.020;12.066;2023-05-10T04:55:20;26.47;;;24.00;;
8964;SDS011;4517;49.020;12.066;2023-05-10T04:57:46;24.93;;;22.63;;
8964;SDS011;4517;49.020;12.066;2023-05-10T05:00:12;27.10;;;24.43;;
8964;SDS011;4517;49.020;12.066;2023-05-10T05:02:38;27.00;;;24.30;;
8964;SDS011;4517;49.020;12.066;2023-05-10T05:05:07;28.10;;;25.60;;
8964;SDS011;4517;49.020;12.066;2023-05-10T05:07:33;26.83;;;24.30;;
8964;SDS011;4517;49.020;12.066;2023-05-10T05:09:58;28.67;;;25.60;;
8964;SDS011;4517;49.020;12.066;2023-05-10T05:12:24;27.90;;;25.20;;
8964;SDS011;4517;49.020;12.066;2023-05-10T05:14:49;27.10;;;24.50;;
8964;SDS011;4517;49.020;12.066;2023-05-10T05:17:15;26.83;;;24.20;;
8964;SDS011;4517;49.020;12.066;2023-05-10T05:19:41;27.10;;;24.30;;
8964;SDS011;4517;49.020;12.066;2023-05-10T05:22:06;28.73;;;25.90;;
8964;SDS011;4517;49.020;12.066;2023-05-10T05:24:37;29.27;;;26.33;;
8964;SDS011;4517;49.020;12.066;2023-05-10T05:27:05;29.17;;;26.27;;
8964;SDS011;4517;49.020;12.066;2023-05-10T05:29:31;30.13;;;27.23;;
8964;SDS011;4517;49.020;12.066;2023-05-10T05:31:57;39.00;;;35.10;;
8964;SDS011;4517;49.020;12.066;2023-05-10T05:34:22;39.53;;;35.30;;
8964;SDS011;4517;49.020;12.066;2023-05-10T05:36:49;44.07;;;34.67;;
8964;SDS011;4517;49.020;12.066;2023-05-10T05:39:15;42.30;;;38.00;;
8964;SDS011;4517;49.020;12.066;2023-05-10T05:41:41;41.50;;;37.40;;
8964;SDS011;4517;49.020;12.066;2023-05-10T05:44:07;43.40;;;38.80;;
8964;SDS011;4517;49.020;12.066;2023-05-10T05:46:33;44.20;;;39.77;;
8964;SDS011;4517;49.020;12.066;2023-05-10T05:48:58;43.30;;;38.87;;
8964;SDS011;4517;49.020;12.066;2023-05-10T05:51:24;47.23;;;39.97;;
8964;SDS011;4517;49.020;12.066;2023-05-10T05:53:50;44.40;;;39.90;;
8964;SDS011;4517;49.020;12.066;2023-05-10T05:56:15;44.90;;;40.43;;
8964;SDS011;4517;49.020;12.066;2023-05-10T05:58:42;46.37;;;39.70;;
8964;SDS011;4517;49.020;12.066;2023-05-10T06:01:08;44.63;;;39.93;;
8964;SDS011;4517;49.020;12.066;2023-05-10T06:03:34;45.10;;;40.53;;
8964;SDS011;4517;49.020;12.066;2023-05-10T06:05:59;42.63;;;37.27;;
8964;SDS011;4517;49.020;12.066;2023-05-10T06:08:25;48.23;;;40.47;;
8964;SDS011;4517;49.020;12.066;2023-05-10T06:10:50;42.17;;;37.70;;
8964;SDS011;4517;49.020;12.066;2023-05-10T06:13:16;44.90;;;40.13;;
8964;SDS011;4517;49.020;12.066;2023-05-10T06:15:42;43.43;;;39.03;;
8964;SDS011;4517;49.020;12.066;2023-05-10T06:18:07;43.73;;;38.67;;
8964;SDS011;4517;49.020;12.066;2023-05-10T06:20:33;43.37;;;37.60;;
8964;SDS011;4517;49.020;12.066;2023-05-10T06:22:58;43.93;;;39.37;;
8964;SDS011;4517;49.020;12.066;2023-05-10T06:25:24;73.30;;;66.10;;
8964;SDS011;4517;49.020;12.066;2023-05-10T06:27:50;52.27;;;46.97;;
8964;SDS011;4517;49.020;12.066;2023-05-10T06:30:15;42.27;;;37.87;;
8964;SDS011;4517;49.020;12.066;2023-05-10T06:32:41;52.23;;;40.43;;
8964;SDS011;4517;49.020;12.066;2023-05-10T06:35:09;42.57;;;37.33;;
8964;SDS011;4517;49.020;12.066;2023-05-10T06:37:34;45.93;;;40.97;;
8964;SDS011;4517;49.020;12.066;2023-05-10T06:40:00;44.70;;;39.90;;
8964;SDS011;4517;49.020;12.066;2023-05-10T06:42:26;44.40;;;39.83;;
8964;SDS011;4517;49.020;12.066;2023-05-10T06:44:52;45.23;;;40.53;;
8964;SDS011;4517;49.020;12.066;2023-05-10T06:47:18;45.77;;;41.60;;
8964;SDS011;4517;49.020;12.066;2023-05-10T06:49:43;45.90;;;40.93;;
8964;SDS011;4517;49.020;12.066;2023-05-10T06:52:09;46.40;;;41.60;;
8964;SDS011;4517;49.020;12.066;2023-05-10T06:54:34;44.87;;;40.47;;
8964;SDS011;4517;49.020;12.066;2023-05-10T06:57:00;49.77;;;45.13;;
8964;SDS011;4517;49.020;12.066;2023-05-10T06:59:27;46.43;;;41.43;;
8964;SDS011;4517;49.020;12.066;2023-05-10T07:01:53;47.93;;;43.63;;
8964;SDS011;4517;49.020;12.066;2023-05-10T07:04:18;43.83;;;39.63;;
8964;SDS011;4517;49.020;12.066;2023-05-10T07:06:44;40.50;;;36.30;;
8964;SDS011;4517;49.020;12.066;2023-05-10T07:09:11;42.33;;;38.03;;
8964;SDS011;4517;49.020;12.066;2023-05-10T07:11:36;42.73;;;38.80;;
8964;SDS011;4517;49.020;12.066;2023-05-10T07:14:02;45.57;;;41.00;;
8964;SDS011;4517;49.020;12.066;2023-05-10T07:16:28;70.37;;;64.27;;
8964;SDS011;4517;49.020;12.066;2023-05-10T07:18:53;41.47;;;36.80;;
8964;SDS011;4517;49.020;12.066;2023-05-10T07:21:19;72.40;;;65.60;;
8964;SDS011;4517;49.020;12.066;2023-05-10T07:27:07;43.50;;;39.10;;
8964;SDS011;4517;49.020;12.066;2023-05-10T07:29:34;47.47;;;42.50;;
8964;SDS011;4517;49.020;12.066;2023-05-10T07:31:59;41.87;;;37.53;;
8964;SDS011;4517;49.020;12.066;2023-05-10T07:34:25;46.30;;;41.90;;
8964;SDS011;4517;49.020;12.066;2023-05-10T07:36:51;48.77;;;44.27;;
8964;SDS011;4517;49.020;12.066;2023-05-10T07:39:16;48.63;;;44.23;;
8964;SDS011;4517;49.020;12.066;2023-05-10T07:41:42;43.07;;;38.60;;
8964;SDS011;4517;49.020;12.066;2023-05-10T07:44:08;50.17;;;45.27;;
8964;SDS011;4517;49.020;12.066;2023-05-10T07:46:33;44.53;;;40.33;;
8964;SDS011;4517;49.020;12.066;2023-05-10T07:49:02;46.67;;;42.37;;
8964;SDS011;4517;49.020;12.066;2023-05-10T07:51:27;39.70;;;35.90;;
8964;SDS011;4517;49.020;12.066;2023-05-10T07:53:53;42.20;;;38.23;;
8964;SDS011;4517;49.020;12.066;2023-05-10T07:56:20;42.83;;;36.80;;
8964;SDS011;4517;49.020;12.066;2023-05-10T07:58:50;37.47;;;33.93;;
8964;SDS011;4517;49.020;12.066;2023-05-10T08:01:16;37.37;;;34.07;;
8964;SDS011;4517;49.020;12.066;2023-05-10T08:03:41;37.23;;;34.10;;
8964;SDS011;4517;49.020;12.066;2023-05-10T08:06:07;36.23;;;32.93;;
8964;SDS011;4517;49.020;12.066;2023-05-10T08:08:33;36.73;;;33.50;;
8964;SDS011;4517;49.020;12.066;2023-05-10T08:10:58;36.13;;;32.87;;
8964;SDS011;4517;49.020;12.066;2023-05-10T08:13:24;34.10;;;31.10;;
8964;SDS011;4517;49.020;12.066;2023-05-10T08:15:49;34.40;;;31.27;;
8964;SDS011;4517;49.020;12.066;2023-05-10T08:18:18;33.30;;;30.00;;
8964;SDS011;4517;49.020;12.066;2023-05-10T08:20:43;32.17;;;28.97;;
8964;SDS011;4517;49.020;12.066;2023-05-10T08:23:09;31.93;;;29.07;;
8964;SDS011;4517;49.020;12.066;2023-05-10T08:25:35;30.50;;;27.80;;
8964;SDS011;4517;49.020;12.066;2023-05-10T08:28:00;43.53;;;40.17;;
8964;SDS011;4517;49.020;12.066;2023-05-10T08:30:26;27.93;;;25.27;;
8964;SDS011;4517;49.020;12.066;2023-05-10T08:32:52;23.97;;;22.07;;
8964;SDS011;4517;49.020;12.066;2023-05-10T08:35:17;24.10;;;22.10;;
8964;SDS011;4517;49.020;12.066;2023-05-10T08:37:43;21.73;;;19.77;;
8964;SDS011;4517;49.020;12.066;2023-05-10T08:40:08;18.90;;;17.60;;
8964;SDS011;4517;49.020;12.066;2023-05-10T08:42:37;18.60;;;17.07;;
8964;SDS011;4517;49.020;12.066;2023-05-10T08:45:09;16.90;;;15.90;;
8964;SDS011;4517;49.020;12.066;2023-05-10T08:47:36;14.23;;;13.43;;
8964;SDS011;4517;49.020;12.066;2023-05-10T08:50:03;13.80;;;13.10;;
8964;SDS011;4517;49.020;12.066;2023-05-10T08:52:30;13.23;;;12.53;;
8964;SDS011;4517;49.020;12.066;2023-05-10T08:54:57;12.23;;;11.53;;
8964;SDS011;4517;49.020;12.066;2023-05-10T08:57:23;13.37;;;12.47;;
8964;SDS011;4517;49.020;12.066;2023-05-10T08:59:49;14.27;;;13.37;;
8964;SDS011;4517;49.020;12.066;2023-05-10T09:02:15;12.60;;;11.90;;
8964;SDS011;4517;49.020;12.066;2023-05-10T09:04:43;11.80;;;11.20;;
8964;SDS011;4517;49.020;12.066;2023-05-10T09:07:09;11.63;;;11.03;;
8964;SDS011;4517;49.020;12.066;2023-05-10T09:09:35;12.90;;;12.10;;
8964;SDS011;4517;49.020;12.066;2023-05-10T09:12:03;11.63;;;11.03;;
8964;SDS011;4517;49.020;12.066;2023-05-10T09:14:39;12.33;;;11.73;;
8964;SDS011;4517;49.020;12.066;2023-05-10T09:17:05;11.77;;;11.27;;
8964;SDS011;4517;49.020;12.066;2023-05-10T09:19:31;12.43;;;11.73;;
8964;SDS011;4517;49.020;12.066;2023-05-10T09:21:58;12.23;;;11.63;;
8964;SDS011;4517;49.020;12.066;2023-05-10T09:24:25;11.80;;;11.30;;
8964;SDS011;4517;49.020;12.066;2023-05-10T09:26:52;12.23;;;11.60;;
8964;SDS011;4517;49.020;12.066;2023-05-10T09:29:17;12.70;;;12.10;;
8964;SDS011;4517;49.020;12.066;2023-05-10T09:34:17;12.33;;;11.63;;
8964;SDS011;4517;49.020;12.066;2023-05-10T09:36:50;12.40;;;11.70;;
8964;SDS011;4517;49.020;12.066;2023-05-10T09:39:21;11.80;;;11.23;;
8964;SDS011;4517;49.020;12.066;2023-05-10T09:41:55;11.33;;;10.70;;
8964;SDS011;4517;49.020;12.066;2023-05-10T09:44:21;11.30;;;10.77;;
8964;SDS011;4517;49.020;12.066;2023-05-10T09:46:50;11.60;;;11.00;;
8964;SDS011;4517;49.020;12.066;2023-05-10T09:49:17;12.40;;;11.60;;
8964;SDS011;4517;49.020;12.066;2023-05-10T09:51:43;11.57;;;10.90;;
8964;SDS011;4517;49.020;12.066;2023-05-10T09:56:36;12.17;;;11.57;;
8964;SDS011;4517;49.020;12.066;2023-05-10T09:59:03;11.23;;;10.53;;
8964;SDS011;4517;49.020;12.066;2023-05-10T10:01:30;12.20;;;11.50;;
8964;SDS011;4517;49.020;12.066;2023-05-10T10:03:56;12.00;;;11.40;;
8964;SDS011;4517;49.020;12.066;2023-05-10T10:06:23;11.20;;;10.60;;
8964;SDS011;4517;49.020;12.066;2023-05-10T10:08:49;10.57;;;9.97;;
8964;SDS011;4517;49.020;12.066;2023-05-10T10:11:15;10.93;;;10.43;;
8964;SDS011;4517;49.020;12.066;2023-05-10T10:13:41;11.00;;;10.37;;
8964;SDS011;4517;49.020;12.066;2023-05-10T10:16:08;17.13;;;16.27;;
8964;SDS011;4517;49.020;12.066;2023-05-10T10:18:34;12.30;;;11.70;;
8964;SDS011;4517;49.020;12.066;2023-05-10T10:21:03;11.80;;;11.10;;
8964;SDS011;4517;49.020;12.066;2023-05-10T10:23:32;11.80;;;11.20;;
8964;SDS011;4517;49.020;12.066;2023-05-10T10:25:57;12.10;;;11.40;;
8964;SDS011;4517;49.020;12.066;2023-05-10T10:28:29;11.83;;;11.23;;
8964;SDS011;4517;49.020;12.066;2023-05-10T10:31:26;11.43;;;10.83;;
8964;SDS011;4517;49.020;12.066;2023-05-10T10:33:59;11.83;;;11.23;;
8964;SDS011;4517;49.020;12.066;2023-05-10T10:36:28;12.00;;;11.30;;
8964;SDS011;4517;49.020;12.066;2023-05-10T10:38:54;12.30;;;11.40;;
8964;SDS011;4517;49.020;12.066;2023-05-10T10:41:28;12.37;;;11.67;;
8964;SDS011;4517;49.020;12.066;2023-05-10T10:47:02;12.57;;;11.87;;
8964;SDS011;4517;49.020;12.066;2023-05-10T10:52:15;12.30;;;11.70;;
8964;SDS011;4517;49.020;12.066;2023-05-10T10:54:41;12.33;;;11.63;;
8964;SDS011;4517;49.020;12.066;2023-05-10T10:57:12;11.83;;;11.10;;
8964;SDS011;4517;49.020;12.066;2023-05-10T10:59:42;12.40;;;11.73;;
8964;SDS011;4517;49.020;12.066;2023-05-10T11:02:09;11.63;;;11.03;;
8964;SDS011;4517;49.020;12.066;2023-05-10T11:04:41;12.33;;;11.63;;
8964;SDS011;4517;49.020;12.066;2023-05-10T11:07:20;12.60;;;11.90;;
8964;SDS011;4517;49.020;12.066;2023-05-10T11:09:46;12.10;;;11.20;;
8964;SDS011;4517;49.020;12.066;2023-05-10T11:12:12;12.33;;;11.63;;
8964;SDS011;4517;49.020;12.066;2023-05-10T11:14:37;12.67;;;11.97;;
8964;SDS011;4517;49.020;12.066;2023-05-10T11:20:07;12.33;;;11.63;;
8964;SDS011;4517;49.020;12.066;2023-05-10T11:22:52;12.50;;;11.90;;
8964;SDS011;4517;49.020;12.066;2023-05-10T11:25:19;12.30;;;11.70;;
8964;SDS011;4517;49.020;12.066;2023-05-10T11:27:47;12.87;;;11.93;;
8964;SDS011;4517;49.020;12.066;2023-05-10T11:30:13;12.00;;;11.37;;
8964;SDS011;4517;49.020;12.066;2023-05-10T11:32:39;12.37;;;11.77;;
8964;SDS011;4517;49.020;12.066;2023-05-10T11:35:09;12.37;;;11.60;;
8964;SDS011;4517;49.020;12.066;2023-05-10T11:37:35;12.30;;;11.70;;
8964;SDS011;4517;49.020;12.066;2023-05-10T11:40:01;13.47;;;12.47;;
8964;SDS011;4517;49.020;12.066;2023-05-10T11:42:28;13.50;;;12.80;;
8964;SDS011;4517;49.020;12.066;2023-05-10T11:44:54;13.57;;;12.60;;
8964;SDS011;4517;49.020;12.066;2023-05-10T11:47:19;13.03;;;12.13;;
8964;SDS011;4517;49.020;12.066;2023-05-10T11:49:45;13.17;;;12.07;;
8964;SDS011;4517;49.020;12.066;2023-05-10T11:52:12;12.00;;;11.40;;
8964;SDS011;4517;49.020;12.066;2023-05-10T11:54:44;12.03;;;11.30;;
8964;SDS011;4517;49.020;12.066;2023-05-10T11:57:15;12.10;;;11.50;;
8964;SDS011;4517;49.020;12.066;2023-05-10T11:59:41;12.50;;;11.47;;
8964;SDS011;4517;49.020;12.066;2023-05-10T12:02:06;12.70;;;12.00;;
8964;SDS011;4517;49.020;12.066;2023-05-10T12:04:32;12.50;;;11.90;;
8964;SDS011;4517;49.020;12.066;2023-05-10T12:06:58;11.90;;;11.30;;
8964;SDS011;4517;49.020;12.066;2023-05-10T12:09:24;13.70;;;13.00;;
8964;SDS011;4517;49.020;12.066;2023-05-10T12:11:50;12.97;;;12.20;;
8964;SDS011;4517;49.020;12.066;2023-05-10T12:14:21;13.57;;;12.87;;
8964;SDS011;4517;49.020;12.066;2023-05-10T12:16:47;13.30;;;12.60;;
8964;SDS011;4517;49.020;12.066;2023-05-10T12:19:17;13.73;;;12.83;;
8964;SDS011;4517;49.020;12.066;2023-05-10T12:21:45;13.57;;;12.87;;
8964;SDS011;4517;49.020;12.066;2023-05-10T12:24:11;13.53;;;12.83;;
8964;SDS011;4517;49.020;12.066;2023-05-10T12:26:37;14.50;;;13.70;;
8964;SDS011;4517;49.020;12.066;2023-05-10T12:29:16;11.60;;;11.00;;
8964;SDS011;4517;49.020;12.066;2023-05-10T12:31:52;11.90;;;11.30;;
8964;SDS011;4517;49.020;12.066;2023-05-10T12:34:32;12.40;;;11.80;;
8964;SDS011;4517;49.020;12.066;2023-05-10T12:37:00;12.20;;;11.60;;
8964;SDS011;4517;49.020;12.066;2023-05-10T12:39:26;11.80;;;11.20;;
8964;SDS011;4517;49.020;12.066;2023-05-10T12:42:06;12.23;;;11.60;;
8964;SDS011;4517;49.020;12.066;2023-05-10T12:44:32;12.73;;;12.13;;
8964;SDS011;4517;49.020;12.066;2023-05-10T12:46:59;13.40;;;12.60;;
8964;SDS011;4517;49.020;12.066;2023-05-10T12:49:25;12.07;;;11.47;;
8964;SDS011;4517;49.020;12.066;2023-05-10T12:51:50;12.77;;;12.07;;
8964;SDS011;4517;49.020;12.066;2023-05-10T12:54:16;13.47;;;12.57;;
8964;SDS011;4517;49.020;12.066;2023-05-10T12:56:41;12.90;;;12.30;;
8964;SDS011;4517;49.020;12.066;2023-05-10T12:59:08;14.00;;;13.30;;
8964;SDS011;4517;49.020;12.066;2023-05-10T13:01:33;12.80;;;12.20;;
8964;SDS011;4517;49.020;12.066;2023-05-10T13:03:59;15.70;;;14.90;;
8964;SDS011;4517;49.020;12.066;2023-05-10T13:06:25;15.70;;;14.90;;
8964;SDS011;4517;49.020;12.066;2023-05-10T13:08:50;14.40;;;13.50;;
8964;SDS011;4517;49.020;12.066;2023-05-10T13:11:17;15.43;;;14.43;;
8964;SDS011;4517;49.020;12.066;2023-05-10T13:13:44;15.90;;;15.00;;
8964;SDS011;4517;49.020;12.066;2023-05-10T13:16:10;16.50;;;15.60;;
8964;SDS011;4517;49.020;12.066;2023-05-10T13:18:36;15.70;;;14.70;;
8964;SDS011;4517;49.020;12.066;2023-05-10T13:21:01;15.73;;;14.80;;
8964;SDS011;4517;49.020;12.066;2023-05-10T13:23:30;14.40;;;13.60;;
8964;SDS011;4517;49.020;12.066;2023-05-10T13:25:55;15.57;;;14.57;;
8964;SDS011;4517;49.020;12.066;2023-05-10T13:28:21;14.70;;;13.80;;
8964;SDS011;4517;49.020;12.066;2023-05-10T13:30:47;14.93;;;14.07;;
8964;SDS011;4517;49.020;12.066;2023-05-10T13:33:12;14.53;;;13.83;;
8964;SDS011;4517;49.020;12.066;2023-05-10T13:35:38;15.37;;;14.47;;
8964;SDS011;4517;49.020;12.066;2023-05-10T13:38:03;14.07;;;13.37;;
8964;SDS011;4517;49.020;12.066;2023-05-10T13:40:29;14.33;;;13.50;;
8964;SDS011;4517;49.020;12.066;2023-05-10T13:42:54;14.30;;;13.10;;
8964;SDS011;4517;49.020;12.066;2023-05-10T13:45:20;13.77;;;12.97;;
8964;SDS011;4517;49.020;12.066;2023-05-10T13:47:45;14.50;;;13.60;;
8964;SDS011;4517;49.020;12.066;2023-05-10T13:50:11;14.50;;;13.70;;
8964;SDS011;4517;49.020;12.066;2023-05-10T13:52:36;15.33;;;14.23;;
8964;SDS011;4517;49.020;12.066;2023-05-10T13:55:03;16.73;;;15.30;;
8964;SDS011;4517;49.020;12.066;2023-05-10T13:57:29;15.53;;;14.53;;
8964;SDS011;4517;49.020;12.066;2023-05-10T13:59:55;16.30;;;15.20;;
8964;SDS011;4517;49.020;12.066;2023-05-10T14:02:22;15.47;;;14.57;;
8964;SDS011;4517;49.020;12.066;2023-05-10T14:04:47;14.87;;;13.97;;
8964;SDS011;4517;49.020;12.066;2023-05-10T14:07:13;14.57;;;13.47;;
8964;SDS011;4517;49.020;12.066;2023-05-10T14:09:39;13.73;;;13.03;;
8964;SDS011;4517;49.020;12.066;2023-05-10T14:12:04;13.40;;;12.80;;
8964;SDS011;4517;49.020;12.066;2023-05-10T14:14:30;12.90;;;12.20;;
8964;SDS011;4517;49.020;12.066;2023-05-10T14:16:56;14.20;;;12.87;;
8964;SDS011;4517;49.020;12.066;2023-05-10T14:19:21;14.90;;;14.00;;
8964;SDS011;4517;49.020;12.066;2023-05-10T14:21:47;14.90;;;14.00;;
8964;SDS011;4517;49.020;12.066;2023-05-10T14:24:13;13.97;;;13.17;;
8964;SDS011;4517;49.020;12.066;2023-05-10T14:26:38;14.57;;;13.67;;
8964;SDS011;4517;49.020;12.066;2023-05-10T14:29:04;13.70;;;13.00;;
8964;SDS011;4517;49.020;12.066;2023-05-10T14:31:29;14.10;;;13.20;;
8964;SDS011;4517;49.020;12.066;2023-05-10T14:33:55;13.77;;;12.93;;
8964;SDS011;4517;49.020;12.066;2023-05-10T14:36:23;15.47;;;14.47;;
8964;SDS011;4517;49.020;12.066;2023-05-10T14:38:49;15.63;;;14.67;;
8964;SDS011;4517;49.020;12.066;2023-05-10T14:41:15;16.50;;;15.40;;
8964;SDS011;4517;49.020;12.066;2023-05-10T14:43:42;16.37;;;15.17;;
8964;SDS011;4517;49.020;12.066;2023-05-10T14:46:08;14.23;;;13.43;;
8964;SDS011;4517;49.020;12.066;2023-05-10T14:48:33;14.63;;;13.77;;
8964;SDS011;4517;49.020;12.066;2023-05-10T14:51:00;14.60;;;13.83;;
8964;SDS011;4517;49.020;12.066;2023-05-10T14:53:26;15.17;;;14.30;;
8964;SDS011;4517;49.020;12.066;2023-05-10T14:55:52;13.70;;;12.83;;
8964;SDS011;4517;49.020;12.066;2023-05-10T14:58:18;14.40;;;13.43;;
8964;SDS011;4517;49.020;12.066;2023-05-10T15:00:45;14.70;;;13.60;;
8964;SDS011;4517;49.020;12.066;2023-05-10T15:03:11;15.73;;;14.60;;
8964;SDS011;4517;49.020;12.066;2023-05-10T15:05:36;14.90;;;13.90;;
8964;SDS011;4517;49.020;12.066;2023-05-10T15:08:02;14.30;;;13.47;;
8964;SDS011;4517;49.020;12.066;2023-05-10T15:10:29;14.23;;;13.33;;
8964;SDS011;4517;49.020;12.066;2023-05-10T15:12:55;19.50;;;18.30;;
8964;SDS011;4517;49.020;12.066;2023-05-10T15:15:20;35.87;;;33.17;;